createdAt,value
2019-02-02T00:00:19.469Z,99040.03
2019-02-02T00:00:53.273Z,99038.31
2019-02-02T00:01:25.466Z,99029.17
2019-02-02T00:01:56.670Z,99034.48
2019-02-02T00:02:27.840Z,99036.27
2019-02-02T00:02:59.228Z,99034.08
2019-02-02T00:03:30.393Z,99034.08
2019-02-02T00:04:01.593Z,99029.73
2019-02-02T00:04:32.895Z,99038.51
2019-02-02T00:05:05.765Z,99015.82
2019-02-02T00:05:36.898Z,99015.82
2019-02-02T00:06:09.121Z,99029.54
2019-02-02T00:06:40.278Z,99029.54
2019-02-02T00:07:11.466Z,99029.95
2019-02-02T00:07:42.633Z,99035.55
2019-02-02T00:08:13.832Z,99029.44
2019-02-02T00:08:44.990Z,99028.24
2019-02-02T00:09:16.200Z,99028.24
2019-02-02T00:09:47.352Z,99024.77
2019-02-02T00:10:18.535Z,99028.61
2019-02-02T00:10:49.688Z,99010.22
2019-02-02T00:11:20.892Z,99010.22
2019-02-02T00:11:52.072Z,99032.96
2019-02-02T00:12:23.271Z,99032.96
2019-02-02T00:12:54.543Z,99017.53
2019-02-02T00:13:25.759Z,99017.53
2019-02-02T00:13:56.937Z,99041.20
2019-02-02T00:14:28.135Z,99037.31
2019-02-02T00:14:59.295Z,99032.55
2019-02-02T00:15:30.488Z,99032.55
2019-02-02T00:16:01.670Z,99033.79
2019-02-02T00:16:33.034Z,99027.26
2019-02-02T00:17:04.207Z,99027.26
2019-02-02T00:17:35.375Z,99029.44
2019-02-02T00:18:06.568Z,99005.50
2019-02-02T00:18:37.760Z,99005.50
2019-02-02T00:19:08.943Z,99026.48
2019-02-02T00:19:40.115Z,99026.48
2019-02-02T00:20:11.311Z,99023.01
2019-02-02T00:20:42.480Z,99020.78
2019-02-02T00:21:13.749Z,99026.02
2019-02-02T00:21:44.927Z,99026.02
2019-02-02T00:22:16.102Z,99023.84
2019-02-02T00:22:47.282Z,99023.84
2019-02-02T00:23:18.462Z,99018.29
2019-02-02T00:23:49.648Z,99018.29
2019-02-02T00:24:20.831Z,99004.67
2019-02-02T00:24:52.116Z,99020.02
2019-02-02T00:25:23.310Z,99017.87
2019-02-02T00:25:54.487Z,99017.87
2019-02-02T00:26:25.670Z,99020.02
2019-02-02T00:26:56.896Z,99013.98
2019-02-02T00:27:28.168Z,99013.98
2019-02-02T00:27:59.393Z,99018.23
2019-02-02T00:28:30.569Z,99005.45
2019-02-02T00:29:01.751Z,99005.45
2019-02-02T00:29:32.916Z,99022.52
2019-02-02T00:30:14.872Z,99010.29
2019-02-02T00:30:46.061Z,99022.12
2019-02-02T00:31:17.265Z,99007.70
2019-02-02T00:31:48.421Z,99007.70
2019-02-02T00:32:19.619Z,99026.97
2019-02-02T00:32:50.771Z,99031.73
2019-02-02T00:33:21.984Z,99026.14
2019-02-02T00:33:53.139Z,99026.14
2019-02-02T00:34:25.339Z,99029.19
2019-02-02T00:34:56.502Z,99034.39
2019-02-02T00:35:27.702Z,99027.91
2019-02-02T00:35:58.880Z,99021.95
2019-02-02T00:36:30.073Z,99021.95
2019-02-02T00:37:01.239Z,99016.34
2019-02-02T00:37:32.490Z,99017.59
2019-02-02T00:38:03.643Z,98999.19
2019-02-02T00:38:34.858Z,99015.47
2019-02-02T00:39:07.321Z,99003.45
2019-02-02T00:39:38.514Z,98988.91
2019-02-02T00:40:18.531Z,99005.16
2019-02-02T00:40:49.767Z,98995.97
2019-02-02T00:41:20.934Z,98995.97
2019-02-02T00:41:52.347Z,98997.22
2019-02-02T00:42:23.534Z,99000.67
2019-02-02T00:42:54.746Z,99000.67
2019-02-02T00:43:25.924Z,99016.64
2019-02-02T00:43:57.115Z,99002.39
2019-02-02T00:44:28.347Z,99009.28
2019-02-02T00:44:59.563Z,99002.80
2019-02-02T00:45:30.838Z,99002.39
2019-02-02T00:46:02.016Z,99006.28
2019-02-02T00:46:33.187Z,99006.28
2019-02-02T00:47:04.476Z,99000.63
2019-02-02T00:47:35.662Z,99000.63
2019-02-02T00:48:06.856Z,98999.75
2019-02-02T00:48:38.041Z,98999.75
2019-02-02T00:49:09.223Z,98988.49
2019-02-02T00:49:40.400Z,98989.36
2019-02-02T00:50:13.537Z,98988.89
2019-02-02T00:50:44.711Z,98988.89
2019-02-02T00:51:15.879Z,98992.80
2019-02-02T00:51:47.052Z,98989.79
2019-02-02T00:52:18.230Z,98990.19
2019-02-02T00:52:49.429Z,98974.10
2019-02-02T00:53:20.613Z,98986.00
2019-02-02T00:53:51.780Z,98986.00
2019-02-02T00:54:22.956Z,98987.71
2019-02-02T00:54:54.134Z,98990.72
2019-02-02T00:55:25.316Z,98990.72
2019-02-02T00:55:56.517Z,98977.06
2019-02-02T00:56:27.755Z,98988.95
2019-02-02T00:56:58.932Z,99002.39
2019-02-02T00:57:30.130Z,99002.39
2019-02-02T00:58:01.275Z,98997.62
2019-02-02T00:58:32.477Z,98998.09
2019-02-02T00:59:03.637Z,98999.38
2019-02-02T00:59:34.848Z,99002.39
2019-02-02T01:00:11.502Z,98999.33
2019-02-02T01:00:42.753Z,99001.97
2019-02-02T01:01:13.917Z,99003.27
2019-02-02T01:01:45.121Z,99003.27
2019-02-02T01:02:16.293Z,99006.34
2019-02-02T01:02:47.485Z,99004.22
2019-02-02T01:03:18.644Z,99004.22
2019-02-02T01:03:49.839Z,99009.81
2019-02-02T01:04:21.001Z,99008.94
2019-02-02T01:04:52.235Z,99008.05
2019-02-02T01:05:23.402Z,99005.45
2019-02-02T01:05:54.587Z,99005.45
2019-02-02T01:06:25.732Z,99001.98
2019-02-02T01:06:56.955Z,99006.73
2019-02-02T01:07:28.100Z,98995.86
2019-02-02T01:07:59.402Z,98998.52
2019-02-02T01:08:30.565Z,99000.74
2019-02-02T01:09:03.672Z,99000.74
2019-02-02T01:09:35.218Z,98996.48
2019-02-02T01:10:12.026Z,98982.48
2019-02-02T01:10:43.186Z,98994.37
2019-02-02T01:11:14.386Z,98992.66
2019-02-02T01:11:45.585Z,98991.78
2019-02-02T01:12:16.752Z,98997.44
2019-02-02T01:12:47.924Z,98990.95
2019-02-02T01:13:19.099Z,99000.86
2019-02-02T01:13:50.282Z,98995.67
2019-02-02T01:14:21.468Z,99004.28
2019-02-02T01:14:52.646Z,99004.28
2019-02-02T01:15:23.844Z,98989.36
2019-02-02T01:15:55.016Z,98989.36
2019-02-02T01:16:26.283Z,99016.41
2019-02-02T01:16:57.477Z,99009.52
2019-02-02T01:17:28.699Z,99014.64
2019-02-02T01:18:00.016Z,99014.64
2019-02-02T01:18:31.159Z,99008.98
2019-02-02T01:19:02.357Z,99006.34
2019-02-02T01:19:33.519Z,98993.61
2019-02-02T01:20:08.527Z,99008.57
2019-02-02T01:20:39.692Z,99011.59
2019-02-02T01:21:10.893Z,98997.55
2019-02-02T01:21:42.065Z,99017.23
2019-02-02T01:22:13.269Z,99017.23
2019-02-02T01:22:44.431Z,99009.45
2019-02-02T01:23:15.639Z,99002.97
2019-02-02T01:23:46.804Z,99011.16
2019-02-02T01:24:17.992Z,99011.16
2019-02-02T01:24:49.189Z,99004.68
2019-02-02T01:25:20.444Z,99006.39
2019-02-02T01:25:51.610Z,99003.45
2019-02-02T01:26:22.830Z,99001.33
2019-02-02T01:26:54.020Z,99001.74
2019-02-02T01:27:25.261Z,99001.74
2019-02-02T01:28:04.931Z,99000.44
2019-02-02T01:28:29.794Z,98996.55
2019-02-02T01:29:01.055Z,98997.87
2019-02-02T01:29:32.479Z,98997.87
2019-02-02T01:30:09.128Z,98989.67
2019-02-02T01:30:40.375Z,98986.66
2019-02-02T01:31:11.758Z,98986.66
2019-02-02T01:31:44.152Z,98983.17
2019-02-02T01:32:15.358Z,98986.65
2019-02-02T01:32:46.517Z,98975.28
2019-02-02T01:33:17.735Z,98985.72
2019-02-02T01:33:48.890Z,98983.17
2019-02-02T01:34:20.098Z,98986.20
2019-02-02T01:34:51.250Z,98986.20
2019-02-02T01:35:22.449Z,98988.77
2019-02-02T01:35:53.623Z,98955.54
2019-02-02T01:36:24.830Z,98988.77
2019-02-02T01:36:56.029Z,98988.77
2019-02-02T01:37:27.289Z,98982.70
2019-02-02T01:37:58.443Z,98974.93
2019-02-02T01:38:29.773Z,98974.93
2019-02-02T01:39:00.929Z,98971.87
2019-02-02T01:39:32.340Z,98971.87
2019-02-02T01:40:11.298Z,98938.17
2019-02-02T01:40:42.498Z,98964.98
2019-02-02T01:41:13.636Z,98964.98
2019-02-02T01:41:44.853Z,98969.75
2019-02-02T01:42:16.022Z,98971.92
2019-02-02T01:42:47.254Z,98971.92
2019-02-02T01:43:18.516Z,98972.39
2019-02-02T01:43:49.738Z,98971.94
2019-02-02T01:44:20.945Z,98971.94
2019-02-02T01:44:52.172Z,98954.02
2019-02-02T01:45:26.403Z,98954.02
2019-02-02T01:45:57.642Z,98967.69
2019-02-02T01:46:28.880Z,98970.27
2019-02-02T01:47:00.109Z,98970.27
2019-02-02T01:47:31.364Z,98964.14
2019-02-02T01:48:02.529Z,98976.76
2019-02-02T01:48:34.736Z,98966.38
2019-02-02T01:49:05.885Z,98969.03
2019-02-02T01:49:37.099Z,98963.42
2019-02-02T01:50:12.657Z,98963.42
2019-02-02T01:50:43.882Z,98962.91
2019-02-02T01:51:15.045Z,98959.44
2019-02-02T01:51:46.250Z,98959.44
2019-02-02T01:52:17.525Z,98958.14
2019-02-02T01:52:48.745Z,98958.14
2019-02-02T01:53:19.983Z,98961.20
2019-02-02T01:53:52.275Z,98959.48
2019-02-02T01:54:23.491Z,98959.48
2019-02-02T01:54:54.739Z,98950.83
2019-02-02T01:55:25.992Z,98950.41
2019-02-02T01:55:57.225Z,98950.41
2019-02-02T01:56:28.480Z,98946.11
2019-02-02T01:57:00.012Z,98952.54
2019-02-02T01:57:31.218Z,98932.92
2019-02-02T01:58:02.438Z,98932.92
2019-02-02T01:58:33.644Z,98955.18
2019-02-02T01:59:04.918Z,98950.46
2019-02-02T01:59:36.212Z,98952.61
2019-02-02T02:00:12.756Z,98952.61
2019-02-02T02:00:43.964Z,98955.64
2019-02-02T02:01:15.154Z,98955.64
2019-02-02T02:01:46.366Z,98956.94
2019-02-02T02:02:17.510Z,98956.94
2019-02-02T02:02:48.723Z,98935.98
2019-02-02T02:03:19.883Z,98935.11
2019-02-02T02:03:52.097Z,98949.16
2019-02-02T02:04:23.259Z,98949.16
2019-02-02T02:04:54.445Z,98935.58
2019-02-02T02:05:25.599Z,98948.30
2019-02-02T02:05:56.773Z,98950.94
2019-02-02T02:06:27.989Z,98946.17
2019-02-02T02:06:59.352Z,98944.88
2019-02-02T02:07:30.513Z,98944.88
2019-02-02T02:08:01.683Z,98938.28
2019-02-02T02:08:33.074Z,98938.28
2019-02-02T02:09:04.848Z,98938.80
2019-02-02T02:09:37.024Z,98935.75
2019-02-02T02:10:17.116Z,98935.73
2019-02-02T02:10:49.313Z,98935.73
2019-02-02T02:11:20.482Z,98935.73
2019-02-02T02:11:51.658Z,98938.28
2019-02-02T02:12:22.838Z,98938.28
2019-02-02T02:12:54.132Z,98944.34
2019-02-02T02:13:25.345Z,98945.69
2019-02-02T02:13:56.526Z,98945.69
2019-02-02T02:14:27.725Z,98946.59
2019-02-02T02:14:59.226Z,98949.23
2019-02-02T02:15:30.386Z,98949.23
2019-02-02T02:16:01.593Z,98944.05
2019-02-02T02:16:33.615Z,98941.09
2019-02-02T02:17:04.803Z,98940.69
2019-02-02T02:17:36.002Z,98941.98
2019-02-02T02:18:07.190Z,98941.98
2019-02-02T02:18:38.562Z,98941.57
2019-02-02T02:19:09.728Z,98941.57
2019-02-02T02:19:40.933Z,98930.66
2019-02-02T02:20:14.695Z,98935.55
2019-02-02T02:20:45.923Z,98943.33
2019-02-02T02:21:17.095Z,98936.39
2019-02-02T02:21:48.289Z,98936.39
2019-02-02T02:22:19.501Z,98935.97
2019-02-02T02:22:50.707Z,98914.06
2019-02-02T02:23:21.886Z,98936.32
2019-02-02T02:23:53.097Z,98913.17
2019-02-02T02:24:24.250Z,98913.17
2019-02-02T02:24:55.463Z,98931.09
2019-02-02T02:25:26.593Z,98921.53
2019-02-02T02:25:57.812Z,98932.73
2019-02-02T02:26:28.984Z,98921.06
2019-02-02T02:27:00.252Z,98921.06
2019-02-02T02:27:31.408Z,98922.77
2019-02-02T02:28:02.603Z,98922.30
2019-02-02T02:28:33.750Z,98922.30
2019-02-02T02:29:04.953Z,98914.94
2019-02-02T02:29:36.113Z,98920.13
2019-02-02T02:30:12.201Z,98919.23
2019-02-02T02:30:43.367Z,98917.48
2019-02-02T02:31:14.620Z,98913.60
2019-02-02T02:31:45.863Z,98913.60
2019-02-02T02:32:17.110Z,98917.94
2019-02-02T02:32:48.386Z,98917.94
2019-02-02T02:33:20.561Z,98916.17
2019-02-02T02:33:51.747Z,98919.66
2019-02-02T02:34:22.945Z,98911.45
2019-02-02T02:34:54.119Z,98911.45
2019-02-02T02:35:25.301Z,98914.89
2019-02-02T02:35:56.459Z,98908.41
2019-02-02T02:36:27.811Z,98911.00
2019-02-02T02:36:58.993Z,98910.17
2019-02-02T02:37:30.197Z,98907.12
2019-02-02T02:38:01.389Z,98904.92
2019-02-02T02:38:32.538Z,98904.92
2019-02-02T02:39:06.475Z,98907.94
2019-02-02T02:39:37.648Z,98905.76
2019-02-02T02:40:13.106Z,98907.05
2019-02-02T02:40:44.260Z,98908.35
2019-02-02T02:41:15.446Z,98908.35
2019-02-02T02:41:46.598Z,98913.94
2019-02-02T02:42:17.759Z,98913.94
2019-02-02T02:42:49.020Z,98910.88
2019-02-02T02:43:20.188Z,98910.88
2019-02-02T02:43:51.345Z,98911.30
2019-02-02T02:44:22.554Z,98913.89
2019-02-02T02:44:53.722Z,98911.72
2019-02-02T02:45:24.912Z,98911.72
2019-02-02T02:45:56.070Z,98908.29
2019-02-02T02:46:27.270Z,98910.00
2019-02-02T02:46:58.414Z,98914.77
2019-02-02T02:47:29.665Z,98894.73
2019-02-02T02:48:00.874Z,98906.95
2019-02-02T02:48:32.041Z,98906.95
2019-02-02T02:49:03.323Z,98912.12
2019-02-02T02:49:34.515Z,98914.26
2019-02-02T02:50:09.998Z,98906.47
2019-02-02T02:50:41.193Z,98906.47
2019-02-02T02:51:12.554Z,98911.66
2019-02-02T02:51:43.751Z,98913.89
2019-02-02T02:52:14.939Z,98907.88
2019-02-02T02:52:46.103Z,98907.88
2019-02-02T02:53:17.293Z,98913.06
2019-02-02T02:53:48.493Z,98910.93
2019-02-02T02:54:19.661Z,98910.93
2019-02-02T02:54:50.858Z,98894.27
2019-02-02T02:55:22.019Z,98894.27
2019-02-02T02:55:53.245Z,98916.12
2019-02-02T02:56:24.426Z,98911.78
2019-02-02T02:56:55.605Z,98902.99
2019-02-02T02:57:27.794Z,98907.45
2019-02-02T02:57:58.962Z,98907.45
2019-02-02T02:58:40.755Z,98907.45
2019-02-02T02:59:03.231Z,98907.04
2019-02-02T02:59:34.408Z,98896.11
2019-02-02T03:00:23.322Z,98911.30
2019-02-02T03:00:54.490Z,98911.30
2019-02-02T03:01:25.797Z,98903.47
2019-02-02T03:01:57.046Z,98903.47
2019-02-02T03:02:28.302Z,98905.19
2019-02-02T03:02:59.786Z,98903.87
2019-02-02T03:03:31.001Z,98879.03
2019-02-02T03:04:02.325Z,98899.98
2019-02-02T03:04:34.600Z,98899.98
2019-02-02T03:05:09.740Z,98894.75
2019-02-02T03:05:40.954Z,98891.75
2019-02-02T03:06:12.139Z,98892.16
2019-02-02T03:06:43.385Z,98892.62
2019-02-02T03:07:14.554Z,98889.57
2019-02-02T03:07:47.465Z,98885.22
2019-02-02T03:08:18.641Z,98885.22
2019-02-02T03:08:49.830Z,98887.81
2019-02-02T03:09:20.999Z,98887.81
2019-02-02T03:09:52.169Z,98886.56
2019-02-02T03:10:24.651Z,98890.03
2019-02-02T03:10:55.844Z,98889.62
2019-02-02T03:11:27.115Z,98890.03
2019-02-02T03:11:58.399Z,98886.52
2019-02-02T03:12:29.763Z,98890.40
2019-02-02T03:13:00.991Z,98890.40
2019-02-02T03:13:32.308Z,98889.09
2019-02-02T03:14:03.500Z,98889.09
2019-02-02T03:14:34.682Z,98886.91
2019-02-02T03:15:10.472Z,98886.91
2019-02-02T03:15:41.732Z,98890.80
2019-02-02T03:16:13.043Z,98891.22
2019-02-02T03:16:44.262Z,98885.98
2019-02-02T03:17:15.488Z,98885.98
2019-02-02T03:17:48.214Z,98872.74
2019-02-02T03:18:19.559Z,98886.80
2019-02-02T03:18:51.837Z,98885.05
2019-02-02T03:19:22.990Z,98890.69
2019-02-02T03:19:54.184Z,98886.34
2019-02-02T03:20:25.350Z,98885.50
2019-02-02T03:20:56.612Z,98885.88
2019-02-02T03:21:27.764Z,98885.88
2019-02-02T03:21:59.217Z,98882.45
2019-02-02T03:22:30.373Z,98876.80
2019-02-02T03:23:01.567Z,98876.38
2019-02-02T03:23:32.737Z,98874.20
2019-02-02T03:24:04.059Z,98874.20
2019-02-02T03:24:35.321Z,98872.02
2019-02-02T03:25:16.148Z,98872.02
2019-02-02T03:25:47.381Z,98871.09
2019-02-02T03:26:18.631Z,98872.02
2019-02-02T03:26:49.873Z,98871.61
2019-02-02T03:27:21.109Z,98874.67
2019-02-02T03:27:52.341Z,98853.29
2019-02-02T03:28:23.572Z,98853.29
2019-02-02T03:28:54.782Z,98874.66
2019-02-02T03:29:25.937Z,98874.66
2019-02-02T03:29:58.136Z,98871.62
2019-02-02T03:30:29.360Z,98878.96
2019-02-02T03:31:00.576Z,98879.44
2019-02-02T03:31:31.775Z,98875.14
2019-02-02T03:32:03.046Z,98872.55
2019-02-02T03:32:34.202Z,98871.72
2019-02-02T03:33:05.418Z,98871.72
2019-02-02T03:33:36.601Z,98870.84
2019-02-02T03:34:07.826Z,98869.95
2019-02-02T03:34:39.060Z,98871.66
2019-02-02T03:35:12.796Z,98849.36
2019-02-02T03:35:45.008Z,98872.91
2019-02-02T03:36:16.204Z,98868.61
2019-02-02T03:36:47.535Z,98868.61
2019-02-02T03:37:18.673Z,98873.78
2019-02-02T03:37:50.479Z,98867.31
2019-02-02T03:38:21.633Z,98871.19
2019-02-02T03:38:53.879Z,98872.08
2019-02-02T03:39:25.103Z,98867.73
2019-02-02T03:39:56.325Z,98872.08
2019-02-02T03:40:27.499Z,98866.44
2019-02-02T03:40:58.888Z,98866.44
2019-02-02T03:41:30.050Z,98870.77
2019-02-02T03:42:01.272Z,98869.48
2019-02-02T03:42:32.836Z,98865.14
2019-02-02T03:43:04.027Z,98865.14
2019-02-02T03:43:35.179Z,98871.25
2019-02-02T03:44:06.369Z,98865.60
2019-02-02T03:44:37.518Z,98867.78
2019-02-02T03:45:12.805Z,98866.06
2019-02-02T03:45:43.958Z,98870.84
2019-02-02T03:46:15.168Z,98863.94
2019-02-02T03:46:46.321Z,98857.87
2019-02-02T03:47:17.529Z,98861.34
2019-02-02T03:47:49.166Z,98857.87
2019-02-02T03:48:20.375Z,98861.83
2019-02-02T03:48:51.553Z,98861.83
2019-02-02T03:49:22.743Z,98843.45
2019-02-02T03:49:53.937Z,98843.45
2019-02-02T03:50:25.188Z,98865.25
2019-02-02T03:50:56.375Z,98857.05
2019-02-02T03:51:27.554Z,98860.16
2019-02-02T03:51:58.738Z,98856.22
2019-02-02T03:52:29.935Z,98856.28
2019-02-02T03:53:01.146Z,98859.34
2019-02-02T03:53:32.432Z,98846.62
2019-02-02T03:54:08.796Z,98846.62
2019-02-02T03:54:36.695Z,98861.09
2019-02-02T03:55:11.987Z,98865.87
2019-02-02T03:55:44.162Z,98860.22
2019-02-02T03:56:15.356Z,98866.70
2019-02-02T03:56:46.575Z,98866.70
2019-02-02T03:57:17.786Z,98864.94
2019-02-02T03:57:48.978Z,98859.75
2019-02-02T03:58:20.189Z,98859.75
2019-02-02T03:58:51.908Z,98861.04
2019-02-02T03:59:23.059Z,98863.64
2019-02-02T03:59:54.245Z,98865.77
2019-02-02T04:00:25.404Z,98862.77
2019-02-02T04:00:56.623Z,98867.07
2019-02-02T04:01:29.961Z,98864.93
2019-02-02T04:02:00.874Z,98864.93
2019-02-02T04:02:32.085Z,98861.47
2019-02-02T04:03:03.280Z,98862.34
2019-02-02T04:03:34.429Z,98851.98
2019-02-02T04:04:05.624Z,98851.56
2019-02-02T04:04:36.858Z,98853.32
2019-02-02T04:05:12.282Z,98851.14
2019-02-02T04:05:43.477Z,98851.14
2019-02-02T04:06:14.748Z,98846.86
2019-02-02T04:06:46.099Z,98846.86
2019-02-02T04:07:17.310Z,98845.55
2019-02-02T04:07:48.480Z,98843.84
2019-02-02T04:08:19.687Z,98840.84
2019-02-02T04:08:50.841Z,98840.84
2019-02-02T04:09:22.045Z,98843.48
2019-02-02T04:09:53.206Z,98836.53
2019-02-02T04:10:24.423Z,98836.53
2019-02-02T04:10:55.601Z,98840.93
2019-02-02T04:11:26.877Z,98843.52
2019-02-02T04:11:58.032Z,98833.52
2019-02-02T04:12:29.373Z,98840.05
2019-02-02T04:13:00.544Z,98840.05
2019-02-02T04:13:32.762Z,98842.23
2019-02-02T04:14:03.875Z,98840.06
2019-02-02T04:14:35.088Z,98833.98
2019-02-02T04:15:08.739Z,98831.41
2019-02-02T04:15:39.948Z,98831.41
2019-02-02T04:16:11.224Z,98840.88
2019-02-02T04:16:42.513Z,98836.16
2019-02-02T04:17:13.798Z,98836.16
2019-02-02T04:17:45.083Z,98842.66
2019-02-02T04:18:16.308Z,98842.66
2019-02-02T04:18:47.529Z,98844.36
2019-02-02T04:19:18.727Z,98844.41
2019-02-02T04:19:49.870Z,98850.94
2019-02-02T04:20:21.972Z,98847.93
2019-02-02T04:20:53.130Z,98847.06
2019-02-02T04:21:24.354Z,98843.17
2019-02-02T04:21:55.502Z,98843.22
2019-02-02T04:22:26.718Z,98836.37
2019-02-02T04:22:57.891Z,98836.37
2019-02-02T04:23:30.100Z,98834.67
2019-02-02T04:24:01.764Z,98841.15
2019-02-02T04:24:33.031Z,98841.15
2019-02-02T04:25:06.102Z,98838.97
2019-02-02T04:25:37.307Z,98838.97
2019-02-02T04:26:08.465Z,98840.26
2019-02-02T04:26:39.655Z,98840.26
2019-02-02T04:27:10.857Z,98846.29
2019-02-02T04:27:42.058Z,98846.29
2019-02-02T04:28:13.224Z,98842.91
2019-02-02T04:28:44.428Z,98828.44
2019-02-02T04:29:17.765Z,98828.44
2019-02-02T04:29:49.665Z,98839.90
2019-02-02T04:30:24.031Z,98839.90
2019-02-02T04:30:55.459Z,98838.14
2019-02-02T04:31:26.631Z,98838.14
2019-02-02T04:31:57.828Z,98843.74
2019-02-02T04:32:28.980Z,98844.58
2019-02-02T04:33:00.204Z,98842.86
2019-02-02T04:33:31.356Z,98836.70
2019-02-02T04:34:02.854Z,98842.03
2019-02-02T04:34:34.030Z,98842.85
2019-02-02T04:35:08.354Z,98842.85
2019-02-02T04:35:39.606Z,98839.81
2019-02-02T04:36:10.867Z,98844.58
2019-02-02T04:36:42.048Z,98844.58
2019-02-02T04:37:13.263Z,98846.74
2019-02-02T04:37:44.425Z,98840.26
2019-02-02T04:38:15.668Z,98838.08
2019-02-02T04:38:46.885Z,98848.92
2019-02-02T04:39:18.125Z,98839.85
2019-02-02T04:39:49.319Z,98842.45
2019-02-02T04:40:20.502Z,98842.45
2019-02-02T04:40:51.685Z,98837.27
2019-02-02T04:41:22.863Z,98837.27
2019-02-02T04:41:54.025Z,98835.59
2019-02-02T04:42:25.207Z,98837.30
2019-02-02T04:42:56.376Z,98837.30
2019-02-02T04:43:27.660Z,98824.30
2019-02-02T04:43:58.826Z,98841.63
2019-02-02T04:44:30.009Z,98813.41
2019-02-02T04:45:01.175Z,98813.41
2019-02-02T04:45:32.430Z,98831.77
2019-02-02T04:46:03.641Z,98837.00
2019-02-02T04:46:34.890Z,98837.00
2019-02-02T04:47:06.081Z,98837.06
2019-02-02T04:47:37.262Z,98837.06
2019-02-02T04:48:08.452Z,98832.80
2019-02-02T04:48:39.626Z,98832.80
2019-02-02T04:49:10.804Z,98834.98
2019-02-02T04:49:42.012Z,98845.91
2019-02-02T04:50:16.980Z,98824.09
2019-02-02T04:50:48.181Z,98824.09
2019-02-02T04:51:19.339Z,98824.96
2019-02-02T04:51:50.550Z,98824.45
2019-02-02T04:52:21.704Z,98824.45
2019-02-02T04:52:52.886Z,98845.86
2019-02-02T04:53:24.049Z,98829.22
2019-02-02T04:53:57.953Z,98829.22
2019-02-02T04:54:28.307Z,98847.63
2019-02-02T04:54:59.513Z,98847.63
2019-02-02T04:55:30.679Z,98845.50
2019-02-02T04:56:01.893Z,98845.50
2019-02-02T04:56:33.039Z,98846.38
2019-02-02T04:57:04.335Z,98845.13
2019-02-02T04:57:35.481Z,98841.67
2019-02-02T04:58:06.683Z,98836.48
2019-02-02T04:58:37.845Z,98836.48
2019-02-02T04:59:09.044Z,98847.73
2019-02-02T04:59:40.220Z,98837.34
2019-02-02T05:00:23.726Z,98837.34
2019-02-02T05:00:54.868Z,98832.59
2019-02-02T05:01:26.076Z,98830.92
2019-02-02T05:01:57.235Z,98833.98
2019-02-02T05:02:30.392Z,98833.98
2019-02-02T05:03:01.490Z,98834.41
2019-02-02T05:03:32.970Z,98809.59
2019-02-02T05:04:04.192Z,98832.73
2019-02-02T05:04:35.400Z,98810.91
2019-02-02T05:05:11.180Z,98831.02
2019-02-02T05:05:42.361Z,98826.28
2019-02-02T05:06:13.566Z,98826.28
2019-02-02T05:06:44.755Z,98819.34
2019-02-02T05:07:16.005Z,98820.64
2019-02-02T05:07:47.131Z,98820.22
2019-02-02T05:08:18.324Z,98818.46
2019-02-02T05:08:49.480Z,98813.22
2019-02-02T05:09:20.687Z,98805.62
2019-02-02T05:09:51.868Z,98817.95
2019-02-02T05:10:23.499Z,98820.08
2019-02-02T05:10:54.735Z,98806.03
2019-02-02T05:11:25.988Z,98817.02
2019-02-02T05:11:57.224Z,98819.62
2019-02-02T05:12:28.454Z,98819.62
2019-02-02T05:13:00.003Z,98813.13
2019-02-02T05:13:31.239Z,98814.43
2019-02-02T05:14:02.603Z,98821.42
2019-02-02T05:14:33.869Z,98807.11
2019-02-02T05:15:06.466Z,98804.93
2019-02-02T05:15:37.615Z,98807.94
2019-02-02T05:16:08.837Z,98806.65
2019-02-02T05:16:39.978Z,98803.63
2019-02-02T05:17:12.210Z,98798.81
2019-02-02T05:17:43.354Z,98803.16
2019-02-02T05:18:14.562Z,98799.69
2019-02-02T05:18:45.714Z,98800.57
2019-02-02T05:19:16.984Z,98796.69
2019-02-02T05:19:48.117Z,98794.14
2019-02-02T05:20:19.530Z,98788.58
2019-02-02T05:20:50.685Z,98788.58
2019-02-02T05:21:21.897Z,98784.69
2019-02-02T05:21:53.034Z,98767.59
2019-02-02T05:22:24.239Z,98779.45
2019-02-02T05:22:55.401Z,98784.69
2019-02-02T05:23:26.644Z,98777.38
2019-02-02T05:23:57.803Z,98783.86
2019-02-02T05:24:29.222Z,98780.38
2019-02-02T05:25:00.399Z,98780.38
2019-02-02T05:25:31.619Z,98779.92
2019-02-02T05:26:03.056Z,98763.28
2019-02-02T05:26:34.325Z,98779.50
2019-02-02T05:27:05.607Z,98780.34
2019-02-02T05:27:36.850Z,98784.64
2019-02-02T05:28:08.125Z,98784.64
2019-02-02T05:28:39.354Z,98784.22
2019-02-02T05:29:10.577Z,98788.07
2019-02-02T05:29:41.962Z,98780.33
2019-02-02T05:30:28.847Z,98780.33
2019-02-02T05:31:00.003Z,98781.63
2019-02-02T05:31:31.203Z,98778.58
2019-02-02T05:32:02.429Z,98775.98
2019-02-02T05:32:33.636Z,98771.67
2019-02-02T05:33:04.788Z,98762.86
2019-02-02T05:33:36.002Z,98755.05
2019-02-02T05:34:07.211Z,98765.61
2019-02-02T05:34:38.490Z,98767.31
2019-02-02T05:35:09.791Z,98767.31
2019-02-02T05:35:41.035Z,98768.66
2019-02-02T05:36:12.280Z,98768.66
2019-02-02T05:36:43.577Z,98766.94
2019-02-02T05:37:14.821Z,98762.17
2019-02-02T05:37:46.036Z,98762.17
2019-02-02T05:38:18.186Z,98761.72
2019-02-02T05:38:49.387Z,98759.17
2019-02-02T05:39:20.555Z,98749.53
2019-02-02T05:39:51.765Z,98749.53
2019-02-02T05:40:22.959Z,98760.92
2019-02-02T05:40:54.267Z,98759.21
2019-02-02T05:41:25.626Z,98759.21
2019-02-02T05:41:56.818Z,98764.02
2019-02-02T05:42:28.017Z,98764.02
2019-02-02T05:42:59.337Z,98770.05
2019-02-02T05:43:30.539Z,98753.88
2019-02-02T05:44:01.726Z,98769.22
2019-02-02T05:44:33.007Z,98769.22
2019-02-02T05:45:07.696Z,98758.66
2019-02-02T05:45:38.878Z,98763.84
2019-02-02T05:46:10.057Z,98776.17
2019-02-02T05:46:41.242Z,98778.77
2019-02-02T05:47:12.474Z,98776.59
2019-02-02T05:47:43.667Z,98776.59
2019-02-02T05:48:14.859Z,98770.98
2019-02-02T05:48:46.044Z,98771.81
2019-02-02T05:49:17.225Z,98771.81
2019-02-02T05:49:49.626Z,98775.29
2019-02-02T05:50:22.219Z,98776.55
2019-02-02T05:50:53.376Z,98776.55
2019-02-02T05:51:24.631Z,98779.59
2019-02-02T05:51:55.782Z,98782.18
2019-02-02T05:52:26.979Z,98783.91
2019-02-02T05:52:58.155Z,98783.03
2019-02-02T05:53:29.389Z,98782.61
2019-02-02T05:54:00.550Z,98782.61
2019-02-02T05:54:31.741Z,98785.62
2019-02-02T05:55:09.420Z,98789.55
2019-02-02T05:55:40.625Z,98789.55
2019-02-02T05:56:11.779Z,98782.20
2019-02-02T05:56:42.967Z,98790.02
2019-02-02T05:57:14.124Z,98794.80
2019-02-02T05:57:45.334Z,98776.03
2019-02-02T05:58:16.487Z,98787.89
2019-02-02T05:58:47.699Z,98794.47
2019-02-02T05:59:18.915Z,98800.16
2019-02-02T05:59:52.813Z,98800.67
2019-02-02T06:00:37.662Z,98791.13
2019-02-02T06:01:10.772Z,98797.62
2019-02-02T06:01:41.961Z,98797.62
2019-02-02T06:02:13.140Z,98790.20
2019-02-02T06:02:44.329Z,98796.78
2019-02-02T06:03:15.495Z,98796.78
2019-02-02T06:03:46.677Z,98797.20
2019-02-02T06:04:17.936Z,98801.97
2019-02-02T06:04:49.124Z,98812.35
2019-02-02T06:05:20.305Z,98789.66
2019-02-02T06:05:51.532Z,98809.30
2019-02-02T06:06:22.756Z,98808.45
2019-02-02T06:06:53.940Z,98813.19
2019-02-02T06:07:25.096Z,98813.19
2019-02-02T06:07:56.260Z,98793.50
2019-02-02T06:08:27.414Z,98793.50
2019-02-02T06:08:58.597Z,98797.48
2019-02-02T06:09:29.740Z,98804.05
2019-02-02T06:10:00.895Z,98805.78
2019-02-02T06:10:32.337Z,98807.54
2019-02-02T06:11:03.707Z,98814.48